N999SP KORL-KORL
Flight info
| Callsign | N999SP |
|---|---|
| Flight time | N/A |
| Altitude | VFR |
| Route | WAPOM MUNGI1 |
| Aircraft | C172/L-VGD/C |
Departure
| Time | 2026-04-28 20:41 |
|---|---|
| Airport | Orlando Executive Airport (KORL) |
Arrival
| Time | N/A |
|---|---|
| Airport | Orlando Executive Airport (KORL) |
| Time | Latitude | Longitude | Altitude | Speed | Heading |
|---|---|---|---|---|---|
| 2026-04-28 19:37 | 28.54952 | -81.33463 | 116 ft | 0 kts | 33° |
| 2026-04-28 19:58 | 28.54942 | -81.33477 | 116 ft | 12 kts | 179° |
| 2026-04-28 19:58 | 28.54845 | -81.33488 | 115 ft | 14 kts | 195° |
| 2026-04-28 19:59 | 28.54774 | -81.33550 | 114 ft | 12 kts | 219° |
| 2026-04-28 19:59 | 28.54712 | -81.33592 | 114 ft | 9 kts | 223° |
| 2026-04-28 19:59 | 28.54660 | -81.33645 | 114 ft | 14 kts | 229° |
| 2026-04-28 19:59 | 28.54599 | -81.33610 | 112 ft | 9 kts | 134° |
| 2026-04-28 20:00 | 28.54556 | -81.33595 | 111 ft | 7 kts | 283° |
| 2026-04-28 20:00 | 28.54534 | -81.33670 | 110 ft | 25 kts | 244° |
| 2026-04-28 20:00 | 28.54452 | -81.33848 | 109 ft | 23 kts | 225° |
| 2026-04-28 20:00 | 28.54393 | -81.33901 | 108 ft | 5 kts | 245° |
| 2026-04-28 20:01 | 28.54372 | -81.33924 | 108 ft | 4 kts | 174° |
| 2026-04-28 20:01 | 28.54364 | -81.33923 | 100 ft | 0 kts | 172° |
| 2026-04-28 20:01 | 28.54355 | -81.33923 | 107 ft | 5 kts | 185° |
| 2026-04-28 20:02 | 28.54306 | -81.33915 | 106 ft | 13 kts | 137° |
| 2026-04-28 20:02 | 28.54307 | -81.33865 | 106 ft | 0 kts | 65° |
| 2026-04-28 20:02 | 28.54347 | -81.33759 | 108 ft | 33 kts | 67° |
| 2026-04-28 20:02 | 28.54477 | -81.33416 | 114 ft | 60 kts | 66° |
| 2026-04-28 20:03 | 28.54661 | -81.32965 | 210 ft | 66 kts | 65° |
| 2026-04-28 20:03 | 28.54870 | -81.32515 | 353 ft | 63 kts | 61° |
| 2026-04-28 20:03 | 28.55117 | -81.32073 | 404 ft | 76 kts | 63° |
| 2026-04-28 20:03 | 28.55429 | -81.31544 | 451 ft | 88 kts | 61° |
| 2026-04-28 20:04 | 28.55874 | -81.31003 | 539 ft | 101 kts | 28° |
| 2026-04-28 20:04 | 28.56583 | -81.31003 | 573 ft | 101 kts | 4° |
| 2026-04-28 20:04 | 28.57271 | -81.31077 | 542 ft | 97 kts | 359° |
| 2026-04-28 20:04 | 28.57708 | -81.31136 | 512 ft | 93 kts | 5° |
| 2026-04-28 20:05 | 28.58393 | -81.31634 | 387 ft | 107 kts | 280° |
| 2026-04-28 20:05 | 28.58394 | -81.32477 | 315 ft | 108 kts | 272° |
| 2026-04-28 20:05 | 28.58354 | -81.33008 | 392 ft | 90 kts | 271° |
| 2026-04-28 20:05 | 28.58284 | -81.33668 | 346 ft | 90 kts | 253° |
| 2026-04-28 20:06 | 28.58232 | -81.34398 | 282 ft | 85 kts | 269° |
| 2026-04-28 20:07 | 28.54824 | -81.33534 | 113 ft | 0 kts | 48° |
| 2026-04-28 20:12 | 28.54825 | -81.33534 | 113 ft | 0 kts | 48° |
| 2026-04-28 20:32 | 28.54852 | -81.33544 | 114 ft | 9 kts | 289° |
| 2026-04-28 20:32 | 28.54834 | -81.33584 | 113 ft | 2 kts | 133° |
| 2026-04-28 20:33 | 28.54832 | -81.33581 | 113 ft | 0 kts | 118° |
| 2026-04-28 20:33 | 28.54821 | -81.33568 | 113 ft | 4 kts | 129° |
| 2026-04-28 20:34 | 28.54784 | -81.33538 | 113 ft | 11 kts | 184° |
| 2026-04-28 20:34 | 28.54716 | -81.33578 | 113 ft | 2 kts | 194° |
| 2026-04-28 20:34 | 28.54710 | -81.33581 | 113 ft | 0 kts | 207° |
| 2026-04-28 20:34 | 28.54699 | -81.33601 | 113 ft | 6 kts | 235° |
| 2026-04-28 20:35 | 28.54698 | -81.33602 | 113 ft | 0 kts | 234° |
| 2026-04-28 20:35 | 28.54674 | -81.33628 | 113 ft | 7 kts | 209° |
| 2026-04-28 20:35 | 28.54595 | -81.33628 | 111 ft | 20 kts | 117° |
| 2026-04-28 20:35 | 28.54544 | -81.33639 | 109 ft | 6 kts | 239° |
| 2026-04-28 20:36 | 28.54490 | -81.33783 | 108 ft | 22 kts | 246° |
| 2026-04-28 20:36 | 28.54441 | -81.33856 | 108 ft | 0 kts | 226° |
| 2026-04-28 20:37 | 28.54375 | -81.33916 | 107 ft | 0 kts | 206° |
| 2026-04-28 20:39 | 28.54374 | -81.33916 | 107 ft | 0 kts | 206° |
| 2026-04-28 20:40 | 28.54344 | -81.33924 | 106 ft | 7 kts | 180° |
| 2026-04-28 20:40 | 28.54306 | -81.33889 | 105 ft | 9 kts | 83° |
| 2026-04-28 20:40 | 28.54324 | -81.33818 | 106 ft | 10 kts | 65° |
| 2026-04-28 20:40 | 28.54381 | -81.33670 | 107 ft | 48 kts | 68° |
| 2026-04-28 20:41 | 28.54597 | -81.33086 | 160 ft | 104 kts | 68° |
| 2026-04-28 20:41 | 28.54925 | -81.32256 | 504 ft | 125 kts | 65° |
| 2026-04-28 20:41 | 28.55410 | -81.31307 | 755 ft | 152 kts | 54° |
| 2026-04-28 20:41 | 28.56148 | -81.30827 | 1263 ft | 113 kts | 6° |
| 2026-04-28 20:42 | 28.56876 | -81.31079 | 1152 ft | 133 kts | 313° |
| 2026-04-28 20:42 | 28.57174 | -81.32122 | 1068 ft | 136 kts | 291° |
| 2026-04-28 20:42 | 28.57386 | -81.33209 | 900 ft | 148 kts | 284° |
| 2026-04-28 20:42 | 28.57592 | -81.34308 | 951 ft | 141 kts | 289° |
| 2026-04-28 20:43 | 28.57768 | -81.35435 | 947 ft | 145 kts | 279° |
| 2026-04-28 20:43 | 28.57833 | -81.36588 | 960 ft | 145 kts | 278° |
| 2026-04-28 20:43 | 28.57883 | -81.37723 | 955 ft | 144 kts | 271° |
| 2026-04-28 20:43 | 28.57384 | -81.38640 | 948 ft | 133 kts | 202° |
| 2026-04-28 20:44 | 28.56506 | -81.39046 | 964 ft | 150 kts | 196° |
| 2026-04-28 20:44 | 28.55536 | -81.39484 | 953 ft | 138 kts | 193° |
| 2026-04-28 20:44 | 28.54682 | -81.39527 | 943 ft | 117 kts | 172° |
| 2026-04-28 20:44 | 28.53821 | -81.39519 | 949 ft | 125 kts | 175° |
| 2026-04-28 20:45 | 28.53057 | -81.39273 | 946 ft | 111 kts | 125° |
| 2026-04-28 20:45 | 28.52922 | -81.38459 | 950 ft | 110 kts | 90° |
| 2026-04-28 20:45 | 28.52911 | -81.37542 | 967 ft | 121 kts | 74° |
| 2026-04-28 20:45 | 28.53215 | -81.36626 | 924 ft | 125 kts | 61° |
| 2026-04-28 20:46 | 28.53623 | -81.35768 | 589 ft | 125 kts | 66° |
| 2026-04-28 20:46 | 28.53879 | -81.35022 | 380 ft | 95 kts | 68° |
| 2026-04-28 20:46 | 28.54164 | -81.34237 | 305 ft | 102 kts | 64° |
| 2026-04-28 20:46 | 28.54412 | -81.33590 | 117 ft | 82 kts | 68° |
| 2026-04-28 20:47 | 28.54608 | -81.33072 | 116 ft | 60 kts | 67° |
| 2026-04-28 20:47 | 28.54829 | -81.32510 | 165 ft | 98 kts | 63° |
| 2026-04-28 20:47 | 28.55197 | -81.31745 | 512 ft | 116 kts | 61° |
| 2026-04-28 20:47 | 28.55663 | -81.30936 | 968 ft | 131 kts | 51° |
| 2026-04-28 20:48 | 28.56337 | -81.30106 | 1068 ft | 160 kts | 32° |
| 2026-04-28 20:48 | 28.57388 | -81.29535 | 988 ft | 161 kts | 26° |
| 2026-04-28 20:48 | 28.58371 | -81.29188 | 936 ft | 144 kts | 0° |
| 2026-04-28 20:48 | 28.59315 | -81.29557 | 949 ft | 150 kts | 342° |
| 2026-04-28 20:49 | 28.60263 | -81.30171 | 954 ft | 170 kts | 319° |
| 2026-04-28 20:49 | 28.60623 | -81.31508 | 959 ft | 190 kts | 266° |
| 2026-04-28 20:49 | 28.60307 | -81.32973 | 968 ft | 190 kts | 254° |
| 2026-04-28 20:49 | 28.59931 | -81.34432 | 949 ft | 192 kts | 257° |
| 2026-04-28 20:50 | 28.59580 | -81.35901 | 957 ft | 195 kts | 255° |
| 2026-04-28 20:50 | 28.58842 | -81.37040 | 947 ft | 167 kts | 203° |
| 2026-04-28 20:50 | 28.57846 | -81.37270 | 940 ft | 132 kts | 180° |
| 2026-04-28 20:50 | 28.56958 | -81.37369 | 939 ft | 126 kts | 177° |
| 2026-04-28 20:51 | 28.56107 | -81.37490 | 945 ft | 129 kts | 183° |
| 2026-04-28 20:51 | 28.55225 | -81.37584 | 970 ft | 124 kts | 178° |
| 2026-04-28 20:51 | 28.54346 | -81.37671 | 954 ft | 127 kts | 181° |
| 2026-04-28 20:51 | 28.53571 | -81.37416 | 1034 ft | 106 kts | 123° |
| 2026-04-28 20:52 | 28.53553 | -81.36656 | 979 ft | 97 kts | 78° |
| 2026-04-28 20:52 | 28.53677 | -81.35833 | 793 ft | 107 kts | 75° |
| 2026-04-28 20:52 | 28.53833 | -81.35025 | 657 ft | 97 kts | 65° |
| 2026-04-28 20:52 | 28.54137 | -81.34365 | 322 ft | 98 kts | 71° |
| 2026-04-28 20:53 | 28.54584 | -81.33139 | 115 ft | 73 kts | 68° |
| 2026-04-28 20:53 | 28.54852 | -81.32438 | 313 ft | 108 kts | 64° |
| 2026-04-28 20:53 | 28.55269 | -81.31683 | 776 ft | 124 kts | 64° |
| 2026-04-28 20:54 | 28.55394 | -81.30590 | 960 ft | 153 kts | 78° |
| 2026-04-28 20:54 | 28.55994 | -81.29777 | 960 ft | 127 kts | 20° |
| 2026-04-28 20:54 | 28.56818 | -81.29786 | 949 ft | 112 kts | 1° |
| 2026-04-28 20:54 | 28.57565 | -81.29793 | 939 ft | 110 kts | 8° |
| 2026-04-28 20:55 | 28.58338 | -81.29847 | 961 ft | 110 kts | 4° |
| 2026-04-28 20:55 | 28.59085 | -81.29879 | 936 ft | 111 kts | 5° |
| 2026-04-28 20:55 | 28.60040 | -81.29868 | 1004 ft | 162 kts | 6° |
| 2026-04-28 20:55 | 28.61206 | -81.29886 | 978 ft | 169 kts | 5° |
| 2026-04-28 20:56 | 28.62414 | -81.29883 | 962 ft | 175 kts | 4° |
| 2026-04-28 20:56 | 28.63627 | -81.29856 | 955 ft | 175 kts | 6° |
| 2026-04-28 20:56 | 28.64817 | -81.29830 | 957 ft | 172 kts | 4° |
| 2026-04-28 20:56 | 28.66013 | -81.29806 | 954 ft | 173 kts | 5° |
| 2026-04-28 20:57 | 28.67206 | -81.29765 | 962 ft | 169 kts | 3° |
| 2026-04-28 20:57 | 28.68386 | -81.29745 | 960 ft | 169 kts | 3° |
| 2026-04-28 20:57 | 28.69562 | -81.29712 | 962 ft | 167 kts | 7° |